Time;durP1;ratioP1;P1;durP2;ratioP2;P2;SDS_P1;SDS_P2;PMS_P1;PMS_P2;Temp;Humidity;BMP_temperature;BMP_pressure;BME280_temperature;BME280_humidity;BME280_pressure;Samples;Min_cycle;Max_cycle;Signal;HPM_P1;HPM_P2
2022/05/30 00:01:22;;;;;;;10.07;6.60;;;;;;;;;;5004904;28;20423;-86
2022/05/30 00:03:48;;;;;;;8.03;7.23;;;;;;;;;;5022790;28;20407;-86
2022/05/30 00:06:16;;;;;;;8.40;6.90;;;;;;;;;;5004728;28;20398;-86
2022/05/30 00:08:42;;;;;;;7.30;6.53;;;;;;;;;;5004341;28;20458;-86
2022/05/30 00:11:12;;;;;;;10.80;7.67;;;;;;;;;;5022273;28;20568;-85
2022/05/30 00:13:39;;;;;;;10.40;8.17;;;;;;;;;;5023099;28;20395;-86
2022/05/30 00:16:06;;;;;;;8.17;7.30;;;;;;;;;;5032197;28;20510;-86
2022/05/30 00:18:32;;;;;;;10.80;7.50;;;;;;;;;;5016836;28;20431;-84
2022/05/30 00:20:58;;;;;;;8.33;7.47;;;;;;;;;;5017759;28;20478;-86
2022/05/30 00:23:25;;;;;;;13.23;6.67;;;;;;;;;;5004980;28;20406;-86
2022/05/30 00:25:51;;;;;;;11.50;7.17;;;;;;;;;;5004634;28;20412;-86
2022/05/30 00:28:17;;;;;;;11.20;8.00;;;;;;;;;;5021458;28;20514;-86
2022/05/30 00:30:44;;;;;;;8.40;7.47;;;;;;;;;;5022307;28;20415;-86
2022/05/30 00:33:11;;;;;;;8.50;7.40;;;;;;;;;;5023459;28;20435;-85
2022/05/30 00:35:37;;;;;;;9.53;7.37;;;;;;;;;;5021839;28;20896;-84
2022/05/30 00:38:04;;;;;;;9.37;7.73;;;;;;;;;;5022334;28;20518;-86
2022/05/30 00:40:31;;;;;;;12.23;7.27;;;;;;;;;;5004969;28;20458;-85
2022/05/30 00:42:57;;;;;;;11.47;7.93;;;;;;;;;;5021848;28;20474;-86
2022/05/30 00:45:23;;;;;;;8.77;6.93;;;;;;;;;;5022175;28;20407;-84
2022/05/30 00:47:50;;;;;;;9.50;8.00;;;;;;;;;;5021889;28;20978;-82
2022/05/30 00:50:18;;;;;;;10.13;8.23;;;;;;;;;;5003697;28;20935;-84
2022/05/30 00:52:45;;;;;;;9.03;7.50;;;;;;;;;;5021449;28;20422;-86
2022/05/30 00:55:13;;;;;;;8.70;7.73;;;;;;;;;;5022232;28;20915;-84
2022/05/30 00:57:40;;;;;;;10.40;6.47;;;;;;;;;;5021594;28;20434;-84
2022/05/30 01:00:07;;;;;;;7.60;6.77;;;;;;;;;;5021714;28;20979;-84
2022/05/30 01:02:34;;;;;;;7.97;6.47;;;;;;;;;;5021728;28;20425;-84
2022/05/30 01:10:21;;;;;;;7.53;6.73;;;;;;;;;;5017722;28;20534;-85
2022/05/30 01:12:52;;;;;;;7.20;6.40;;;;;;;;;;5020024;28;20458;-85
2022/05/30 01:15:20;;;;;;;10.70;7.10;;;;;;;;;;5019632;28;20376;-84
2022/05/30 01:17:58;;;;;;;7.93;7.00;;;;;;;;;;5018271;28;20422;-85
2022/05/30 01:20:28;;;;;;;9.80;6.60;;;;;;;;;;5019469;28;20812;-85
2022/05/30 01:23:06;;;;;;;10.60;7.23;;;;;;;;;;5020168;28;20426;-85
2022/05/30 01:25:54;;;;;;;7.43;6.47;;;;;;;;;;5020187;28;20437;-84
2022/05/30 01:28:23;;;;;;;8.97;6.70;;;;;;;;;;5020375;28;20831;-84
2022/05/30 01:30:49;;;;;;;8.00;7.20;;;;;;;;;;5023273;28;20475;-85
2022/05/30 01:33:16;;;;;;;7.53;6.60;;;;;;;;;;5022505;28;20443;-84
2022/05/30 01:35:43;;;;;;;8.20;7.30;;;;;;;;;;5017528;28;20519;-83
2022/05/30 01:38:09;;;;;;;10.40;6.80;;;;;;;;;;5017521;28;20935;-83
2022/05/30 01:40:35;;;;;;;7.90;6.53;;;;;;;;;;5017666;28;21078;-85
2022/05/30 01:43:01;;;;;;;9.20;6.97;;;;;;;;;;5018194;28;20777;-84
2022/05/30 01:45:27;;;;;;;7.93;7.13;;;;;;;;;;5017785;28;20400;-84
2022/05/30 01:47:54;;;;;;;7.60;6.80;;;;;;;;;;5019357;28;20753;-85
2022/05/30 01:50:21;;;;;;;10.03;7.30;;;;;;;;;;5005249;28;20502;-85
2022/05/30 01:52:47;;;;;;;9.60;6.23;;;;;;;;;;5002028;28;20459;-85
2022/05/30 01:55:13;;;;;;;8.73;6.80;;;;;;;;;;5018918;28;20434;-85
2022/05/30 01:57:39;;;;;;;6.87;5.90;;;;;;;;;;5019532;28;20434;-85
2022/05/30 02:00:07;;;;;;;8.20;6.70;;;;;;;;;;5019922;28;20895;-85
2022/05/30 02:02:35;;;;;;;7.80;6.50;;;;;;;;;;5001392;28;20412;-85
2022/05/30 02:05:01;;;;;;;8.27;7.03;;;;;;;;;;5019577;28;20418;-84
2022/05/30 02:07:27;;;;;;;8.47;6.57;;;;;;;;;;5001772;28;20423;-85
2022/05/30 02:09:53;;;;;;;10.20;6.20;;;;;;;;;;5019378;28;20447;-85
2022/05/30 02:12:19;;;;;;;8.90;6.97;;;;;;;;;;5018766;28;20422;-85
2022/05/30 02:14:46;;;;;;;9.30;7.70;;;;;;;;;;5018998;28;20407;-85
2022/05/30 02:17:12;;;;;;;9.07;7.60;;;;;;;;;;5020109;28;20411;-85
2022/05/30 02:19:43;;;;;;;9.23;7.30;;;;;;;;;;5019876;28;20868;-85
2022/05/30 02:22:16;;;;;;;8.40;7.47;;;;;;;;;;5019946;28;20526;-85
2022/05/30 02:24:42;;;;;;;9.03;6.50;;;;;;;;;;5019599;28;20422;-84
2022/05/30 02:27:10;;;;;;;7.70;6.67;;;;;;;;;;5019352;28;20490;-85
2022/05/30 02:29:36;;;;;;;9.60;6.90;;;;;;;;;;5019503;28;20420;-85
2022/05/30 02:32:02;;;;;;;7.90;7.10;;;;;;;;;;5002601;28;20482;-84
2022/05/30 02:37:13;;;;;;;8.40;6.60;;;;;;;;;;5020859;28;20394;-84
2022/05/30 02:39:39;;;;;;;8.83;7.70;;;;;;;;;;5002896;28;21106;-85
2022/05/30 02:42:06;;;;;;;6.93;6.23;;;;;;;;;;5002261;28;20426;-85
2022/05/30 02:44:32;;;;;;;7.00;6.30;;;;;;;;;;5019256;28;20415;-84
2022/05/30 02:46:58;;;;;;;7.60;6.80;;;;;;;;;;5019654;28;20411;-84
2022/05/30 02:49:25;;;;;;;5.90;5.37;;;;;;;;;;5019814;28;20430;-85
2022/05/30 02:51:52;;;;;;;8.10;5.23;;;;;;;;;;5015161;28;20516;-84
2022/05/30 02:54:18;;;;;;;7.10;5.90;;;;;;;;;;5031722;28;20434;-85
2022/05/30 02:56:51;;;;;;;5.40;4.30;;;;;;;;;;5020344;28;20762;-85
2022/05/30 02:59:18;;;;;;;6.10;5.50;;;;;;;;;;5019309;28;20430;-85
2022/05/30 03:01:44;;;;;;;8.33;5.83;;;;;;;;;;5019728;28;20411;-85
2022/05/30 03:04:10;;;;;;;7.43;6.00;;;;;;;;;;5019369;28;20407;-85
2022/05/30 03:06:36;;;;;;;5.23;4.77;;;;;;;;;;5019952;28;20432;-85
2022/05/30 03:09:02;;;;;;;8.20;5.60;;;;;;;;;;5018557;28;20434;-85
2022/05/30 03:11:28;;;;;;;5.50;5.00;;;;;;;;;;5017788;28;20431;-86
2022/05/30 03:13:54;;;;;;;7.20;5.93;;;;;;;;;;5018167;28;20535;-86
2022/05/30 03:16:21;;;;;;;7.70;6.20;;;;;;;;;;5020922;28;20758;-87
2022/05/30 03:18:47;;;;;;;6.40;5.60;;;;;;;;;;5021171;28;20454;-87
2022/05/30 03:21:13;;;;;;;7.77;5.43;;;;;;;;;;5021495;28;20514;-87
2022/05/30 03:23:39;;;;;;;5.17;4.67;;;;;;;;;;5021219;28;20410;-87
2022/05/30 03:26:06;;;;;;;6.10;5.50;;;;;;;;;;5021266;28;20403;-87
2022/05/30 03:28:32;;;;;;;6.53;5.83;;;;;;;;;;5021505;28;20785;-86
2022/05/30 03:30:59;;;;;;;7.87;7.07;;;;;;;;;;5003466;28;20498;-87
2022/05/30 03:33:25;;;;;;;18.73;11.70;;;;;;;;;;5020985;28;20408;-86
2022/05/30 03:35:51;;;;;;;7.63;6.10;;;;;;;;;;5003056;28;20419;-86
2022/05/30 03:38:17;;;;;;;6.27;5.67;;;;;;;;;;5020209;28;20832;-86
2022/05/30 03:40:43;;;;;;;8.87;7.97;;;;;;;;;;5002798;28;20505;-86
2022/05/30 03:43:10;;;;;;;9.50;8.27;;;;;;;;;;5020582;28;20418;-87
2022/05/30 03:45:40;;;;;;;6.80;5.30;;;;;;;;;;5020621;28;20891;-86
2022/05/30 03:48:07;;;;;;;7.10;5.90;;;;;;;;;;5022883;28;20763;-83
2022/05/30 03:50:33;;;;;;;5.90;5.27;;;;;;;;;;5026038;28;20415;-85
2022/05/30 03:53:05;;;;;;;6.23;5.63;;;;;;;;;;5022079;28;20407;-85
2022/05/30 03:55:32;;;;;;;8.77;5.53;;;;;;;;;;5020719;28;20394;-85
2022/05/30 03:57:59;;;;;;;6.33;5.73;;;;;;;;;;5019166;28;20466;-85
2022/05/30 04:00:25;;;;;;;6.53;5.90;;;;;;;;;;5018126;28;20497;-84
2022/05/30 04:02:51;;;;;;;6.80;5.50;;;;;;;;;;5005166;28;20862;-84
2022/05/30 04:05:17;;;;;;;5.40;4.90;;;;;;;;;;5020499;28;20411;-85
2022/05/30 04:07:43;;;;;;;5.63;5.13;;;;;;;;;;5022514;28;20407;-84
2022/05/30 04:10:10;;;;;;;6.63;5.20;;;;;;;;;;5022246;28;20438;-83
2022/05/30 04:12:36;;;;;;;6.97;6.27;;;;;;;;;;5020253;28;20538;-86
2022/05/30 04:15:03;;;;;;;5.67;5.07;;;;;;;;;;5028472;28;20498;-86
2022/05/30 04:17:32;;;;;;;8.23;5.80;;;;;;;;;;5022180;28;20411;-86
2022/05/30 04:19:58;;;;;;;6.37;5.03;;;;;;;;;;5021872;28;20454;-86
2022/05/30 04:22:24;;;;;;;5.90;5.23;;;;;;;;;;5022235;28;20514;-86
2022/05/30 04:24:51;;;;;;;5.70;4.63;;;;;;;;;;5022307;28;20463;-86
2022/05/30 04:27:17;;;;;;;5.87;5.30;;;;;;;;;;5003935;28;20411;-86
2022/05/30 04:29:43;;;;;;;5.33;4.77;;;;;;;;;;5004465;28;20439;-86
2022/05/30 04:32:10;;;;;;;3.60;3.30;;;;;;;;;;5004623;28;20450;-86
2022/05/30 04:34:36;;;;;;;5.70;4.87;;;;;;;;;;5021949;28;20933;-85
2022/05/30 04:37:03;;;;;;;6.53;5.00;;;;;;;;;;5018535;28;20399;-84
2022/05/30 04:39:29;;;;;;;5.73;5.13;;;;;;;;;;5021426;28;20977;-86
2022/05/30 04:41:55;;;;;;;5.80;5.30;;;;;;;;;;5004031;28;20900;-86
2022/05/30 04:44:21;;;;;;;5.83;5.10;;;;;;;;;;5022100;28;20414;-86
2022/05/30 04:46:52;;;;;;;6.83;6.13;;;;;;;;;;5021020;28;20943;-86
2022/05/30 04:49:18;;;;;;;6.27;5.67;;;;;;;;;;5021530;28;20772;-86
2022/05/30 04:51:44;;;;;;;7.67;6.97;;;;;;;;;;5022796;28;20969;-86
2022/05/30 04:54:10;;;;;;;5.77;4.73;;;;;;;;;;5005326;28;20408;-86
2022/05/30 04:56:36;;;;;;;7.20;6.50;;;;;;;;;;5023209;28;20459;-86
2022/05/30 04:59:04;;;;;;;9.70;6.40;;;;;;;;;;5023915;28;20424;-86
2022/05/30 05:01:30;;;;;;;6.37;5.37;;;;;;;;;;5005811;28;20522;-85
2022/05/30 05:03:56;;;;;;;5.83;5.27;;;;;;;;;;5022375;28;20424;-86
2022/05/30 05:06:22;;;;;;;6.53;5.47;;;;;;;;;;5021414;28;20431;-86
2022/05/30 05:08:53;;;;;;;7.17;5.13;;;;;;;;;;5021418;28;20450;-85
2022/05/30 05:11:21;;;;;;;10.53;5.70;;;;;;;;;;5021788;28;20771;-86
2022/05/30 05:13:47;;;;;;;5.70;4.97;;;;;;;;;;5021731;28;20456;-85
2022/05/30 05:16:13;;;;;;;6.17;5.33;;;;;;;;;;5021513;28;20437;-85
2022/05/30 05:18:40;;;;;;;4.70;4.07;;;;;;;;;;5021740;28;20427;-86
2022/05/30 05:21:06;;;;;;;6.73;5.10;;;;;;;;;;5026919;28;20478;-84
2022/05/30 05:23:32;;;;;;;5.37;4.13;;;;;;;;;;5037013;28;20415;-83
2022/05/30 05:26:00;;;;;;;4.73;3.90;;;;;;;;;;5025485;28;20407;-86
2022/05/30 05:28:27;;;;;;;7.60;4.03;;;;;;;;;;5012108;28;20458;-85
2022/05/30 05:30:53;;;;;;;5.47;4.17;;;;;;;;;;5007841;28;20805;-85
2022/05/30 05:33:19;;;;;;;4.30;3.90;;;;;;;;;;5011135;28;20876;-85
2022/05/30 05:35:46;;;;;;;3.80;3.40;;;;;;;;;;5017437;28;20435;-85
2022/05/30 05:38:12;;;;;;;4.03;2.90;;;;;;;;;;5003172;28;20527;-85
2022/05/30 05:40:42;;;;;;;4.97;3.00;;;;;;;;;;5021938;28;20439;-84
2022/05/30 05:43:08;;;;;;;5.17;3.67;;;;;;;;;;5018296;28;20463;-85
2022/05/30 05:45:35;;;;;;;3.97;3.50;;;;;;;;;;5013356;28;20441;-85
2022/05/30 05:48:01;;;;;;;3.53;3.23;;;;;;;;;;5010815;28;20439;-84
2022/05/30 05:50:30;;;;;;;4.23;3.00;;;;;;;;;;4998485;28;20412;-85
2022/05/30 05:52:56;;;;;;;4.00;3.30;;;;;;;;;;5017746;28;20431;-85
2022/05/30 05:55:23;;;;;;;4.60;3.43;;;;;;;;;;5018140;28;20495;-84
2022/05/30 05:57:49;;;;;;;5.50;3.03;;;;;;;;;;5000716;28;20515;-85
2022/05/30 06:00:22;;;;;;;4.60;3.40;;;;;;;;;;5106082;28;20985;-82
2022/05/30 06:02:48;;;;;;;4.00;3.50;;;;;;;;;;5100762;28;20427;-82
2022/05/30 06:05:14;;;;;;;3.53;3.20;;;;;;;;;;5090686;28;20492;-83
2022/05/30 06:07:41;;;;;;;4.93;3.50;;;;;;;;;;5100132;28;20455;-82
2022/05/30 06:10:08;;;;;;;4.23;3.30;;;;;;;;;;5122802;28;20482;-87
2022/05/30 06:12:36;;;;;;;4.50;4.00;;;;;;;;;;5100717;28;20506;-87
2022/05/30 06:15:03;;;;;;;3.50;3.13;;;;;;;;;;5117111;28;20419;-85
2022/05/30 06:17:32;;;;;;;4.30;3.07;;;;;;;;;;5110103;28;20423;-87
2022/05/30 06:19:58;;;;;;;3.30;2.77;;;;;;;;;;5095188;28;20479;-86
2022/05/30 06:22:27;;;;;;;10.50;3.97;;;;;;;;;;5094214;28;20432;-86
2022/05/30 06:24:53;;;;;;;2.90;2.70;;;;;;;;;;5098104;28;20415;-86
2022/05/30 06:27:20;;;;;;;3.53;2.90;;;;;;;;;;5097984;28;20423;-86
2022/05/30 06:29:47;;;;;;;4.00;3.37;;;;;;;;;;5094739;28;20491;-86
2022/05/30 06:32:13;;;;;;;4.87;3.13;;;;;;;;;;5115128;28;20427;-87
2022/05/30 06:34:39;;;;;;;4.10;3.33;;;;;;;;;;5112826;28;20526;-86
2022/05/30 06:37:08;;;;;;;5.03;2.90;;;;;;;;;;5109414;28;20433;-85
2022/05/30 06:39:35;;;;;;;4.80;3.80;;;;;;;;;;5114767;28;20462;-85
2022/05/30 06:42:01;;;;;;;5.53;2.70;;;;;;;;;;5116713;28;20403;-86
2022/05/30 06:44:27;;;;;;;3.77;3.47;;;;;;;;;;5114063;28;20434;-85
2022/05/30 06:46:53;;;;;;;3.30;3.00;;;;;;;;;;5111877;28;20418;-86
2022/05/30 06:49:19;;;;;;;3.50;2.93;;;;;;;;;;5115950;28;20447;-85
2022/05/30 06:51:45;;;;;;;4.37;3.20;;;;;;;;;;5117051;28;20399;-85
2022/05/30 06:54:11;;;;;;;6.70;3.87;;;;;;;;;;5090297;28;20489;-85
2022/05/30 06:58:12;;;;;;;4.77;3.23;;;;;;;;;;5111946;28;20778;-86
2022/05/30 06:59:26;;;;;;;3.10;2.70;;;;;;;;;;5111327;28;20561;-85
2022/05/30 07:01:52;;;;;;;3.67;3.20;;;;;;;;;;5081593;28;20492;-85
2022/05/30 07:04:19;;;;;;;4.37;2.80;;;;;;;;;;5091781;28;20424;-86
2022/05/30 07:06:48;;;;;;;3.37;3.07;;;;;;;;;;5069992;28;20783;-85
2022/05/30 07:09:15;;;;;;;4.40;3.73;;;;;;;;;;5089783;28;20455;-85
2022/05/30 07:11:41;;;;;;;5.47;3.33;;;;;;;;;;5088712;22;20557;-82
2022/05/30 07:14:12;;;;;;;3.53;2.80;;;;;;;;;;5036840;28;20434;-82
2022/05/30 07:16:38;;;;;;;5.40;3.20;;;;;;;;;;5044722;28;20476;-83
2022/05/30 07:19:05;;;;;;;3.53;3.17;;;;;;;;;;5039983;28;20468;-83
2022/05/30 07:21:31;;;;;;;4.60;3.83;;;;;;;;;;5040896;28;20451;-82
2022/05/30 07:23:57;;;;;;;3.93;3.50;;;;;;;;;;5032706;28;20508;-84
2022/05/30 07:26:23;;;;;;;4.97;4.47;;;;;;;;;;5021954;28;20422;-83
2022/05/30 07:28:51;;;;;;;3.87;3.47;;;;;;;;;;5023836;28;20919;-82
2022/05/30 07:31:18;;;;;;;3.70;3.33;;;;;;;;;;5025432;28;20450;-84
2022/05/30 07:33:45;;;;;;;3.80;2.93;;;;;;;;;;5032235;28;20500;-84
2022/05/30 07:36:14;;;;;;;3.20;2.90;;;;;;;;;;5020547;28;20431;-84
2022/05/30 07:38:40;;;;;;;3.23;2.90;;;;;;;;;;5024391;28;20454;-84
2022/05/30 07:41:06;;;;;;;4.50;3.77;;;;;;;;;;5026194;28;20447;-83
2022/05/30 07:43:32;;;;;;;3.30;3.00;;;;;;;;;;5028696;28;20419;-83
2022/05/30 07:46:02;;;;;;;4.10;2.80;;;;;;;;;;5030473;28;20426;-84
2022/05/30 07:48:28;;;;;;;4.00;3.10;;;;;;;;;;5036292;28;20460;-83
2022/05/30 07:50:57;;;;;;;3.47;3.10;;;;;;;;;;5038582;28;20877;-84
2022/05/30 07:53:23;;;;;;;3.97;3.27;;;;;;;;;;5021106;28;20434;-84
2022/05/30 07:55:49;;;;;;;3.90;2.67;;;;;;;;;;5038132;28;20420;-84
2022/05/30 07:58:16;;;;;;;3.73;2.97;;;;;;;;;;5023391;28;20415;-85
2022/05/30 08:00:42;;;;;;;5.60;2.83;;;;;;;;;;5027185;28;20447;-84
2022/05/30 08:03:11;;;;;;;2.80;2.50;;;;;;;;;;5031370;28;20481;-84
2022/05/30 08:05:39;;;;;;;6.53;3.27;;;;;;;;;;5026764;28;20423;-85
2022/05/30 08:08:05;;;;;;;3.80;2.77;;;;;;;;;;5021371;28;20450;-83
2022/05/30 08:10:31;;;;;;;3.57;3.10;;;;;;;;;;5032524;28;20493;-82
2022/05/30 08:12:58;;;;;;;4.23;3.00;;;;;;;;;;5024683;28;20490;-83
2022/05/30 08:15:24;;;;;;;3.20;2.90;;;;;;;;;;5031325;28;20506;-85
2022/05/30 08:17:53;;;;;;;3.47;2.70;;;;;;;;;;5025137;28;20833;-84
2022/05/30 08:20:19;;;;;;;3.40;3.10;;;;;;;;;;5026632;28;20510;-84
2022/05/30 08:22:46;;;;;;;3.50;2.80;;;;;;;;;;5019757;28;20519;-82
2022/05/30 08:25:14;;;;;;;4.37;2.33;;;;;;;;;;5041072;28;20507;-84
2022/05/30 08:27:41;;;;;;;4.13;2.50;;;;;;;;;;5026713;28;20410;-84
2022/05/30 08:30:07;;;;;;;2.50;1.87;;;;;;;;;;5025363;28;20437;-85
2022/05/30 08:32:35;;;;;;;2.30;2.03;;;;;;;;;;5028711;28;20513;-84
2022/05/30 08:35:03;;;;;;;2.40;2.20;;;;;;;;;;5031119;28;20474;-84
2022/05/30 08:37:30;;;;;;;2.53;1.93;;;;;;;;;;5036617;28;20414;-83
2022/05/30 08:42:42;;;;;;;2.27;1.93;;;;;;;;;;5025976;28;20449;-84
2022/05/30 08:45:09;;;;;;;4.43;2.40;;;;;;;;;;5029663;28;20419;-83
2022/05/30 08:47:43;;;;;;;2.93;2.23;;;;;;;;;;5020345;28;20422;-84
2022/05/30 08:50:30;;;;;;;4.20;2.67;;;;;;;;;;5023622;28;20429;-83
2022/05/30 08:52:56;;;;;;;2.47;2.13;;;;;;;;;;4998158;28;20461;-85
2022/05/30 08:55:41;;;;;;;2.70;2.37;;;;;;;;;;5032524;28;20435;-84
2022/05/30 08:58:25;;;;;;;3.60;2.80;;;;;;;;;;5026140;28;20433;-83
2022/05/30 09:00:56;;;;;;;3.93;2.47;;;;;;;;;;5026809;28;20538;-83
2022/05/30 09:03:38;;;;;;;3.53;2.27;;;;;;;;;;5016851;28;20510;-84
2022/05/30 09:06:14;;;;;;;2.67;2.00;;;;;;;;;;5014858;28;20477;-84
2022/05/30 09:08:44;;;;;;;2.80;1.77;;;;;;;;;;5018322;28;20975;-84
2022/05/30 09:11:18;;;;;;;2.47;2.03;;;;;;;;;;5019579;28;20455;-84
2022/05/30 09:13:47;;;;;;;3.00;1.77;;;;;;;;;;5023306;28;20464;-83
2022/05/30 09:16:14;;;;;;;2.90;2.20;;;;;;;;;;5029585;28;20418;-82
2022/05/30 09:18:45;;;;;;;4.87;2.37;;;;;;;;;;5012665;28;20467;-83
2022/05/30 09:21:11;;;;;;;4.10;2.13;;;;;;;;;;5018454;28;20482;-83
2022/05/30 09:23:37;;;;;;;2.87;2.10;;;;;;;;;;5033122;28;20407;-82
2022/05/30 09:26:07;;;;;;;2.57;2.13;;;;;;;;;;5017545;28;20771;-82
2022/05/30 09:28:35;;;;;;;2.57;2.03;;;;;;;;;;5020896;28;20457;-83
2022/05/30 09:31:06;;;;;;;5.10;2.13;;;;;;;;;;5027697;28;20481;-83
2022/05/30 09:33:36;;;;;;;3.03;1.90;;;;;;;;;;5029295;28;20441;-85
2022/05/30 09:36:14;;;;;;;6.30;2.30;;;;;;;;;;5032732;28;20494;-84
2022/05/30 09:38:41;;;;;;;3.07;1.97;;;;;;;;;;5025282;28;20462;-83
2022/05/30 09:41:11;;;;;;;2.67;1.90;;;;;;;;;;5025927;28;20469;-87
2022/05/30 09:43:52;;;;;;;4.83;2.07;;;;;;;;;;5015150;28;20510;-85
2022/05/30 09:46:25;;;;;;;2.03;1.73;;;;;;;;;;5016681;28;20443;-83
2022/05/30 09:49:12;;;;;;;2.90;1.47;;;;;;;;;;5035121;28;20418;-84
2022/05/30 09:51:39;;;;;;;2.67;1.90;;;;;;;;;;4983624;28;20819;-83
2022/05/30 09:54:08;;;;;;;6.23;2.10;;;;;;;;;;5021803;28;20404;-84
2022/05/30 09:56:38;;;;;;;2.60;1.97;;;;;;;;;;5020843;28;20433;-83
2022/05/30 09:59:13;;;;;;;2.47;1.73;;;;;;;;;;5027421;28;20529;-83
2022/05/30 10:01:39;;;;;;;5.03;2.33;;;;;;;;;;5035866;28;20450;-84
2022/05/30 10:04:13;;;;;;;4.43;2.00;;;;;;;;;;5037929;28;20469;-83
2022/05/30 10:06:39;;;;;;;2.57;2.17;;;;;;;;;;5020265;28;20427;-82
2022/05/30 10:09:23;;;;;;;3.03;2.27;;;;;;;;;;5017381;28;20443;-82
2022/05/30 10:11:58;;;;;;;2.80;2.17;;;;;;;;;;5019216;28;20470;-84
2022/05/30 10:14:39;;;;;;;4.80;2.07;;;;;;;;;;5019236;28;20948;-82
2022/05/30 10:17:13;;;;;;;3.30;2.03;;;;;;;;;;5007728;28;20390;-85
2022/05/30 10:19:42;;;;;;;3.27;1.77;;;;;;;;;;5028841;28;20501;-84
2022/05/30 10:30:58;;;;;;;4.83;2.43;;;;;;;;;;5017148;28;20450;-82
2022/05/30 10:33:24;;;;;;;5.60;1.80;;;;;;;;;;5016282;28;20431;-82
2022/05/30 10:36:08;;;;;;;2.67;2.20;;;;;;;;;;5038350;28;20799;-84
2022/05/30 10:38:39;;;;;;;3.03;2.17;;;;;;;;;;5023683;28;21009;-84
2022/05/30 10:41:05;;;;;;;2.70;2.00;;;;;;;;;;5034837;28;20427;-83
2022/05/30 10:43:34;;;;;;;2.60;2.00;;;;;;;;;;5025373;28;20414;-85
2022/05/30 10:46:02;;;;;;;2.80;2.20;;;;;;;;;;5018661;28;20434;-82
2022/05/30 10:48:31;;;;;;;2.33;1.60;;;;;;;;;;5025408;28;20831;-84
2022/05/30 10:51:06;;;;;;;3.93;1.70;;;;;;;;;;5024560;28;20496;-85
2022/05/30 10:53:54;;;;;;;3.30;2.20;;;;;;;;;;5030878;28;20448;-84
2022/05/30 10:56:32;;;;;;;4.77;2.60;;;;;;;;;;5042186;28;20438;-82
2022/05/30 10:59:04;;;;;;;2.20;2.00;;;;;;;;;;5015110;28;20486;-83
2022/05/30 11:01:40;;;;;;;4.43;2.87;;;;;;;;;;5023489;28;20454;-83
2022/05/30 11:04:13;;;;;;;3.97;2.00;;;;;;;;;;5025555;28;20792;-85
2022/05/30 11:06:41;;;;;;;2.67;2.27;;;;;;;;;;5020823;28;20428;-83
2022/05/30 11:09:12;;;;;;;2.83;2.20;;;;;;;;;;5019377;28;20485;-83
2022/05/30 11:11:48;;;;;;;2.50;1.97;;;;;;;;;;5033954;28;20493;-85
2022/05/30 11:14:28;;;;;;;2.50;1.90;;;;;;;;;;5025590;28;20431;-85
2022/05/30 11:16:58;;;;;;;4.20;1.90;;;;;;;;;;5025933;28;20428;-84
2022/05/30 11:19:28;;;;;;;2.53;2.10;;;;;;;;;;5024798;28;20454;-85
2022/05/30 11:21:54;;;;;;;4.37;2.50;;;;;;;;;;5033427;28;20537;-86
2022/05/30 11:24:20;;;;;;;3.53;1.90;;;;;;;;;;5031939;28;20411;-85
2022/05/30 11:27:00;;;;;;;3.60;2.33;;;;;;;;;;5022164;28;20438;-84
2022/05/30 11:29:49;;;;;;;3.17;1.83;;;;;;;;;;5035641;28;20505;-84
2022/05/30 11:32:15;;;;;;;3.33;2.23;;;;;;;;;;5019013;28;20450;-84
2022/05/30 11:34:58;;;;;;;2.67;2.03;;;;;;;;;;5032471;28;20447;-84
2022/05/30 11:37:27;;;;;;;4.03;2.40;;;;;;;;;;5033508;28;20450;-85
2022/05/30 11:40:12;;;;;;;2.67;1.90;;;;;;;;;;5038592;28;20469;-86
2022/05/30 11:42:57;;;;;;;4.23;1.93;;;;;;;;;;5028921;28;20930;-85
2022/05/30 11:45:29;;;;;;;3.40;2.27;;;;;;;;;;5036075;28;20414;-85
2022/05/30 11:48:16;;;;;;;2.20;1.53;;;;;;;;;;5022758;28;20438;-84
2022/05/30 11:50:45;;;;;;;3.80;2.40;;;;;;;;;;5032031;28;20439;-85
2022/05/30 11:53:11;;;;;;;2.87;1.93;;;;;;;;;;5022787;28;22255;-85
2022/05/30 11:55:41;;;;;;;3.50;2.00;;;;;;;;;;5023722;28;20423;-86
2022/05/30 11:58:12;;;;;;;3.10;1.90;;;;;;;;;;5028421;28;20569;-86
2022/05/30 12:00:41;;;;;;;6.70;2.10;;;;;;;;;;5033107;28;20507;-85
2022/05/30 12:03:24;;;;;;;3.53;2.00;;;;;;;;;;5034031;28;20410;-85
2022/05/30 12:06:23;;;;;;;2.73;1.83;;;;;;;;;;5025871;28;20423;-86
2022/05/30 12:09:09;;;;;;;4.23;1.90;;;;;;;;;;4996748;28;20438;-86
2022/05/30 12:11:41;;;;;;;4.30;1.90;;;;;;;;;;5024262;28;20458;-86
2022/05/30 12:14:17;;;;;;;3.27;1.90;;;;;;;;;;5033061;28;20426;-86
2022/05/30 12:16:43;;;;;;;2.40;2.20;;;;;;;;;;5027575;28;20461;-85
2022/05/30 12:24:40;;;;;;;5.53;2.13;;;;;;;;;;5023960;28;20457;-86
2022/05/30 12:27:25;;;;;;;4.57;2.33;;;;;;;;;;5024414;28;20433;-86
2022/05/30 12:29:51;;;;;;;2.67;2.03;;;;;;;;;;5022627;28;20431;-85
2022/05/30 12:32:17;;;;;;;3.43;2.37;;;;;;;;;;5023294;28;20514;-86
2022/05/30 12:35:00;;;;;;;2.83;2.00;;;;;;;;;;5039704;28;20418;-85
2022/05/30 12:37:44;;;;;;;4.37;2.40;;;;;;;;;;5027673;28;20414;-83
2022/05/30 12:40:28;;;;;;;3.57;2.00;;;;;;;;;;5017328;28;20517;-84
2022/05/30 12:43:03;;;;;;;3.00;1.90;;;;;;;;;;5025180;28;20441;-84
2022/05/30 12:45:52;;;;;;;3.00;2.10;;;;;;;;;;5033173;28;20426;-85
2022/05/30 12:48:21;;;;;;;6.10;2.30;;;;;;;;;;5017911;28;20431;-84
2022/05/30 12:50:50;;;;;;;4.93;2.10;;;;;;;;;;5023812;28;20462;-85
2022/05/30 12:53:17;;;;;;;3.23;2.03;;;;;;;;;;5023211;28;20433;-85
2022/05/30 12:55:45;;;;;;;2.97;2.20;;;;;;;;;;5026095;28;20430;-84
2022/05/30 12:58:13;;;;;;;7.00;2.37;;;;;;;;;;5023241;28;20462;-85
2022/05/30 13:00:43;;;;;;;3.43;2.10;;;;;;;;;;5027680;28;20463;-83
2022/05/30 13:03:17;;;;;;;3.47;2.30;;;;;;;;;;5035593;28;20490;-83
2022/05/30 13:05:46;;;;;;;6.20;1.80;;;;;;;;;;5031974;28;20421;-84
2022/05/30 13:08:30;;;;;;;2.77;2.00;;;;;;;;;;5026109;28;20430;-84
2022/05/30 13:13:30;;;;;;;4.43;1.90;;;;;;;;;;5091086;28;20467;-84
2022/05/30 13:15:58;;;;;;;3.53;1.70;;;;;;;;;;5089027;28;20419;-85
2022/05/30 13:18:25;;;;;;;4.83;2.20;;;;;;;;;;5108474;28;20435;-85
2022/05/30 13:20:51;;;;;;;3.20;1.87;;;;;;;;;;5109707;28;20426;-85
2022/05/30 13:23:27;;;;;;;4.97;2.17;;;;;;;;;;5081806;28;20499;-84
2022/05/30 13:25:53;;;;;;;3.63;1.60;;;;;;;;;;5108168;28;20454;-84
2022/05/30 13:28:30;;;;;;;3.17;2.07;;;;;;;;;;5101430;28;20415;-86
2022/05/30 13:30:58;;;;;;;5.40;2.40;;;;;;;;;;5101059;28;20435;-83
2022/05/30 13:33:39;;;;;;;3.80;2.13;;;;;;;;;;5097252;28;20431;-84
2022/05/30 13:36:09;;;;;;;2.63;2.00;;;;;;;;;;5102048;28;20407;-85
2022/05/30 13:38:42;;;;;;;3.50;2.20;;;;;;;;;;5101126;28;20447;-84
2022/05/30 13:41:16;;;;;;;3.60;2.07;;;;;;;;;;5101601;28;20424;-86
2022/05/30 13:43:43;;;;;;;2.97;1.90;;;;;;;;;;5100917;28;20395;-85
2022/05/30 13:46:09;;;;;;;3.07;1.90;;;;;;;;;;5099971;28;20434;-84
2022/05/30 13:48:35;;;;;;;3.43;1.87;;;;;;;;;;5101616;28;20543;-85
2022/05/30 13:51:11;;;;;;;5.70;2.30;;;;;;;;;;5108615;28;20888;-85
2022/05/30 13:53:37;;;;;;;5.33;2.20;;;;;;;;;;5103830;28;20398;-84
2022/05/30 13:56:10;;;;;;;2.73;1.87;;;;;;;;;;5102507;28;20411;-85
2022/05/30 13:58:38;;;;;;;2.63;1.87;;;;;;;;;;5104856;28;20459;-84
2022/05/30 14:01:06;;;;;;;3.87;2.10;;;;;;;;;;5103986;28;20900;-85
2022/05/30 14:03:33;;;;;;;3.60;2.30;;;;;;;;;;5102410;28;20409;-87
2022/05/30 14:05:59;;;;;;;2.63;2.00;;;;;;;;;;5101863;28;20412;-83
2022/05/30 14:08:36;;;;;;;2.83;1.80;;;;;;;;;;5119114;28;20417;-85
2022/05/30 14:11:07;;;;;;;4.00;2.50;;;;;;;;;;5103830;28;20459;-84
2022/05/30 14:13:33;;;;;;;2.87;2.23;;;;;;;;;;5119591;28;20383;-85
2022/05/30 14:16:04;;;;;;;3.37;2.00;;;;;;;;;;5099982;28;20418;-84
2022/05/30 14:18:44;;;;;;;27.37;2.70;;;;;;;;;;5081438;28;20466;-85
2022/05/30 14:21:12;;;;;;;3.67;1.80;;;;;;;;;;5083862;28;20440;-84
2022/05/30 14:23:41;;;;;;;9.63;2.20;;;;;;;;;;5097528;28;20435;-85
2022/05/30 14:26:13;;;;;;;2.33;1.93;;;;;;;;;;5085697;28;20419;-84
2022/05/30 14:29:00;;;;;;;2.93;1.80;;;;;;;;;;5085032;28;20396;-83
2022/05/30 14:31:28;;;;;;;2.73;1.77;;;;;;;;;;5083009;28;20464;-83
2022/05/30 14:33:58;;;;;;;2.70;1.70;;;;;;;;;;5099870;28;20465;-83
2022/05/30 14:36:36;;;;;;;3.63;1.57;;;;;;;;;;5102370;28;20172;-81
2022/05/30 14:39:09;;;;;;;2.67;1.90;;;;;;;;;;5085399;28;20442;-85
2022/05/30 14:41:35;;;;;;;3.20;2.00;;;;;;;;;;5083720;28;20427;-83
2022/05/30 14:44:03;;;;;;;4.63;2.00;;;;;;;;;;5101479;28;20387;-84
2022/05/30 14:46:39;;;;;;;5.83;1.83;;;;;;;;;;5100980;28;20395;-84
2022/05/30 14:49:16;;;;;;;2.70;2.17;;;;;;;;;;5102161;28;20415;-84
2022/05/30 14:51:53;;;;;;;2.40;1.80;;;;;;;;;;5102332;28;20506;-84
2022/05/30 14:54:29;;;;;;;2.47;1.70;;;;;;;;;;5101074;28;20403;-84
2022/05/30 14:56:56;;;;;;;3.03;1.90;;;;;;;;;;5133314;27;20882;-84
2022/05/30 14:59:41;;;;;;;4.40;2.30;;;;;;;;;;5097407;28;20440;-85
2022/05/30 15:02:09;;;;;;;3.47;2.00;;;;;;;;;;5084591;28;20431;-85
2022/05/30 15:04:35;;;;;;;3.00;1.53;;;;;;;;;;5084502;28;20441;-86
2022/05/30 15:07:01;;;;;;;4.07;2.00;;;;;;;;;;5102664;28;20461;-85
2022/05/30 15:09:28;;;;;;;2.30;1.40;;;;;;;;;;5102945;28;20471;-84
2022/05/30 15:11:55;;;;;;;2.00;1.60;;;;;;;;;;5110895;28;20451;-84
2022/05/30 15:14:25;;;;;;;3.37;1.77;;;;;;;;;;5091458;28;20433;-85
2022/05/30 15:16:52;;;;;;;2.70;1.70;;;;;;;;;;5104353;28;20415;-85
2022/05/30 15:19:18;;;;;;;2.70;1.67;;;;;;;;;;5085643;28;20534;-85
2022/05/30 15:21:50;;;;;;;3.97;1.70;;;;;;;;;;5103492;28;20915;-84
2022/05/30 15:24:17;;;;;;;4.23;1.60;;;;;;;;;;5103630;28;20435;-84